< < Back
Terminal Aerodrome Forecast


Current Version              Previous Versions:   1  2  3  4  5  6  7  8  9  

Terminal Aerodrome Forecast

642
FTUS42 KMLB 010539
TAFDAB
TAF
KDAB 010539Z 0106/0206 VRB03KT P6SM SCT025 SCT250
     FM011400 14008KT P6SM FEW040 BKN250
     FM011800 11009G15KT P6SM FEW040 BKN250
     FM020000 13004KT P6SM FEW025 SCT250=



Latest METAR

385
SAUS80 KWBC 020100
MTRDAB
METAR KDAB 020053Z 11004KT 10SM FEW035 FEW070 SCT250 24/22 A3004 RMK AO2
SLP172 T02440217


USA.gov is the U.S. government's official web portal to all federal, state and local government web resources and services.